createdAt,value
2023-01-13T00:00:38.427Z,95468.22
2023-01-13T00:03:06.758Z,95459.31
2023-01-13T00:05:35.379Z,95420.06
2023-01-13T00:08:05.020Z,95469.34
2023-01-13T00:10:34.984Z,95468.19
2023-01-13T00:13:05.017Z,95470.13
2023-01-13T00:15:33.711Z,95464.28
2023-01-13T00:18:02.060Z,95466.31
2023-01-13T00:20:30.379Z,95467.72
2023-01-13T00:23:00.226Z,95476.19
2023-01-13T00:25:28.436Z,95479.59
2023-01-13T00:27:58.234Z,95460.13
2023-01-13T00:30:26.450Z,95480.97
2023-01-13T00:32:54.784Z,95488.47
2023-01-13T00:35:23.168Z,95488.47
2023-01-13T00:37:51.384Z,95487.53
2023-01-13T00:40:19.864Z,95489.63
2023-01-13T00:43:07.716Z,95489.66
2023-01-13T00:45:37.389Z,95484.84
2023-01-13T00:48:05.707Z,95436.25
2023-01-13T00:50:34.312Z,95493.31
2023-01-13T00:53:02.978Z,95485.78
2023-01-13T00:55:32.604Z,95486.91
2023-01-13T00:58:03.738Z,95490.03
2023-01-13T01:00:32.457Z,95484.44
2023-01-13T01:03:02.393Z,95487.91
2023-01-13T01:05:30.612Z,95485.91
2023-01-13T01:07:58.875Z,95480.81
2023-01-13T01:10:27.401Z,95480.16
2023-01-13T01:12:55.641Z,95489.38
2023-01-13T01:15:43.531Z,95478.41
2023-01-13T01:18:13.256Z,95480.88
2023-01-13T01:20:41.497Z,95483.47
2023-01-13T01:23:09.741Z,95475.53
2023-01-13T01:25:38.086Z,95455.69
2023-01-13T01:28:06.394Z,95476.75
2023-01-13T01:30:34.708Z,95468.69
2023-01-13T01:33:05.358Z,95461.28
2023-01-13T01:35:34.978Z,95386.69
2023-01-13T01:38:03.180Z,95417.59
2023-01-13T01:40:31.502Z,95471.00
2023-01-13T01:43:13.503Z,95468.41
2023-01-13T01:45:41.793Z,95420.28
2023-01-13T01:48:13.755Z,95468.50
2023-01-13T01:50:43.506Z,95419.78
2023-01-13T01:53:14.455Z,95469.19
2023-01-13T01:55:43.688Z,95475.63
2023-01-13T01:58:16.805Z,95474.84
2023-01-13T02:00:45.359Z,95479.78
2023-01-13T02:03:14.342Z,95454.53
2023-01-13T02:05:44.073Z,95471.66
2023-01-13T02:08:15.099Z,95471.72
2023-01-13T02:10:47.026Z,95472.47
2023-01-13T02:13:15.676Z,95467.00
2023-01-13T02:15:52.372Z,95469.69
2023-01-13T02:18:32.974Z,95471.47
2023-01-13T02:21:30.478Z,95418.19
2023-01-13T02:24:41.573Z,95415.22
2023-01-13T02:27:54.941Z,95471.00
2023-01-13T02:31:15.751Z,95476.41
2023-01-13T02:33:55.065Z,95478.38
2023-01-13T02:36:32.838Z,95480.28
2023-01-13T02:39:09.749Z,95476.59
2023-01-13T02:42:02.960Z,95483.38
2023-01-13T02:44:37.380Z,95454.97
2023-01-13T02:47:11.603Z,95483.44
2023-01-13T02:49:43.832Z,95490.34
2023-01-13T02:52:15.529Z,95493.53
2023-01-13T02:54:48.081Z,95490.94
2023-01-13T02:57:19.719Z,95490.47
2023-01-13T02:59:49.330Z,95476.09
2023-01-13T03:02:22.717Z,95485.81
2023-01-13T03:04:54.404Z,95455.53
2023-01-13T03:07:53.506Z,95478.66
2023-01-13T03:10:35.911Z,95406.53
2023-01-13T03:13:16.225Z,95416.19
2023-01-13T03:15:55.296Z,95479.53
2023-01-13T03:18:36.031Z,95476.00
2023-01-13T03:21:11.132Z,95477.22
2023-01-13T03:23:49.138Z,95455.44
2023-01-13T03:26:24.169Z,95479.34
2023-01-13T03:28:59.609Z,95474.31
2023-01-13T03:31:32.815Z,95444.09
2023-01-13T03:34:08.743Z,95403.53
2023-01-13T03:36:40.904Z,95485.63
2023-01-13T03:39:13.785Z,95478.63
2023-01-13T03:41:48.439Z,95488.00
2023-01-13T03:44:23.238Z,95486.66
2023-01-13T03:47:00.755Z,95483.91
2023-01-13T03:49:36.157Z,95486.91
2023-01-13T03:52:09.266Z,95466.69
2023-01-13T03:54:45.130Z,95494.88
2023-01-13T03:57:17.061Z,95487.56
2023-01-13T03:59:49.932Z,95425.28
2023-01-13T04:02:25.849Z,95494.16
2023-01-13T04:04:59.906Z,95456.66
2023-01-13T04:07:38.863Z,95500.03
2023-01-13T04:10:10.307Z,95490.22
2023-01-13T04:13:05.347Z,95487.56
2023-01-13T04:15:37.998Z,95503.09
2023-01-13T04:18:15.576Z,95469.19
2023-01-13T04:20:46.707Z,95503.09
2023-01-13T04:23:15.250Z,95512.66
2023-01-13T04:25:44.915Z,95519.09
2023-01-13T04:28:13.735Z,95513.69
2023-01-13T04:30:42.766Z,95515.44
2023-01-13T04:33:12.260Z,95463.03
2023-01-13T04:35:40.685Z,95519.31
2023-01-13T04:38:12.819Z,95445.63
2023-01-13T04:40:41.439Z,95518.25
2023-01-13T04:43:10.219Z,95521.50
2023-01-13T04:45:38.613Z,95524.03
2023-01-13T04:48:07.440Z,95512.84
2023-01-13T04:50:35.786Z,95479.34
2023-01-13T04:53:04.172Z,95449.97
2023-01-13T04:55:33.968Z,95447.25
2023-01-13T04:58:05.881Z,95517.53
2023-01-13T05:00:34.564Z,95474.91
2023-01-13T05:03:03.374Z,95534.41
2023-01-13T05:05:32.273Z,95530.81
2023-01-13T05:08:00.678Z,95468.16
2023-01-13T05:10:29.384Z,95511.75
2023-01-13T05:13:16.448Z,95520.56
2023-01-13T05:16:04.632Z,95529.75
2023-01-13T05:18:34.190Z,95542.91
2023-01-13T05:21:02.465Z,95542.44
2023-01-13T05:23:47.989Z,95521.75
2023-01-13T05:26:16.271Z,95543.94
2023-01-13T05:28:45.986Z,95469.56
2023-01-13T05:31:15.109Z,95460.34
2023-01-13T05:33:43.422Z,95553.53
2023-01-13T05:36:11.700Z,95552.03
2023-01-13T05:38:40.069Z,95552.78
2023-01-13T05:41:26.618Z,95551.44
2023-01-13T05:43:56.379Z,95554.06
2023-01-13T05:46:24.885Z,95555.63
2023-01-13T05:48:53.197Z,95542.25
2023-01-13T05:51:26.367Z,95562.22
2023-01-13T05:53:57.524Z,95562.47
2023-01-13T05:56:25.839Z,95567.09
2023-01-13T05:58:55.454Z,95566.13
2023-01-13T06:01:23.852Z,95565.13
2023-01-13T06:03:52.244Z,95549.91
2023-01-13T06:06:20.576Z,95562.69
2023-01-13T06:08:48.902Z,95563.53
2023-01-13T06:11:17.247Z,95578.31
2023-01-13T06:13:45.586Z,95577.47
2023-01-13T06:16:15.367Z,95581.69
2023-01-13T06:18:43.657Z,95582.38
2023-01-13T06:21:11.882Z,95583.38
2023-01-13T06:23:40.123Z,95580.63
2023-01-13T06:26:13.746Z,95586.66
2023-01-13T06:28:42.050Z,95589.22
2023-01-13T06:31:11.792Z,95579.56
2023-01-13T06:33:45.943Z,95594.75
2023-01-13T06:36:18.352Z,95593.00
2023-01-13T06:38:51.320Z,95579.16
2023-01-13T06:41:42.075Z,95546.53
2023-01-13T06:44:09.405Z,95570.09
2023-01-13T06:46:37.988Z,95582.03
2023-01-13T06:49:07.970Z,95577.78
2023-01-13T06:51:36.377Z,95573.56
2023-01-13T06:54:05.020Z,95574.63
2023-01-13T06:56:33.391Z,95576.00
2023-01-13T06:59:01.575Z,95578.69
2023-01-13T07:01:29.812Z,95573.91
2023-01-13T07:03:58.356Z,95576.50
2023-01-13T07:06:33.223Z,95580.69
2023-01-13T07:09:01.657Z,95574.09
2023-01-13T07:11:29.953Z,95578.34
2023-01-13T07:14:15.510Z,95574.88
2023-01-13T07:16:45.243Z,95558.34
2023-01-13T07:19:13.593Z,95573.78
2023-01-13T07:21:44.076Z,95519.97
2023-01-13T07:24:12.385Z,95569.69
2023-01-13T07:26:42.856Z,95528.09
2023-01-13T07:29:11.140Z,95561.56
2023-01-13T07:31:41.807Z,95568.53
2023-01-13T07:34:10.256Z,95571.78
2023-01-13T07:36:39.501Z,95547.94
2023-01-13T07:39:09.407Z,95567.94
2023-01-13T07:41:54.874Z,95571.13
2023-01-13T07:44:26.134Z,95571.72
2023-01-13T07:46:54.378Z,95575.47
2023-01-13T07:49:25.392Z,95572.09
2023-01-13T07:51:53.698Z,95576.41
2023-01-13T07:54:39.074Z,95569.16
2023-01-13T07:57:08.358Z,95524.31
2023-01-13T07:59:37.053Z,95573.50
2023-01-13T08:02:05.545Z,95563.69
2023-01-13T08:04:35.073Z,95562.69
2023-01-13T08:07:03.428Z,95576.34
2023-01-13T08:09:33.340Z,95580.25
2023-01-13T08:12:15.464Z,95578.25
2023-01-13T08:14:43.989Z,95582.78
2023-01-13T08:17:12.495Z,95587.34
2023-01-13T08:19:40.864Z,95583.69
2023-01-13T08:22:09.128Z,95581.69
2023-01-13T08:24:38.771Z,95580.06
2023-01-13T08:27:07.109Z,95573.66
2023-01-13T08:29:35.446Z,95571.19
2023-01-13T08:32:03.751Z,95576.16
2023-01-13T08:34:32.063Z,95570.25
2023-01-13T08:37:00.399Z,95578.84
2023-01-13T08:39:28.927Z,95576.78
2023-01-13T08:41:58.946Z,95492.88
2023-01-13T08:44:28.759Z,95570.81
2023-01-13T08:46:57.884Z,95563.66
2023-01-13T08:49:26.793Z,95572.56
2023-01-13T08:51:55.425Z,95548.69
2023-01-13T08:54:23.776Z,95508.00
2023-01-13T08:56:52.177Z,95555.72
2023-01-13T08:59:22.301Z,95548.56
2023-01-13T09:01:50.871Z,95540.88
2023-01-13T09:04:23.743Z,95540.41
2023-01-13T09:06:53.226Z,95543.25
2023-01-13T09:09:21.825Z,95493.91
2023-01-13T09:12:09.346Z,95526.25
2023-01-13T09:14:40.595Z,95528.47
2023-01-13T09:17:09.111Z,95517.69
2023-01-13T09:19:38.034Z,95519.09
2023-01-13T09:22:06.392Z,95501.00
2023-01-13T09:24:34.748Z,95512.59
2023-01-13T09:27:03.080Z,95507.28
2023-01-13T09:29:31.533Z,95499.72
2023-01-13T09:32:01.352Z,95489.66
2023-01-13T09:34:47.054Z,95486.50
2023-01-13T09:37:15.488Z,95483.56
2023-01-13T09:39:43.777Z,95477.94
2023-01-13T09:42:37.505Z,95477.06
2023-01-13T09:45:09.184Z,95468.72
2023-01-13T09:47:43.679Z,95417.53
2023-01-13T09:50:23.563Z,95462.25
2023-01-13T09:52:52.307Z,95447.56
2023-01-13T09:55:26.633Z,95461.97
2023-01-13T09:57:55.010Z,95460.75
2023-01-13T10:00:25.351Z,95416.66
2023-01-13T10:03:10.639Z,95445.19
2023-01-13T10:05:42.495Z,95438.34
2023-01-13T10:08:14.743Z,95439.34
2023-01-13T10:10:47.390Z,95424.47
2023-01-13T10:13:21.400Z,95391.50
2023-01-13T10:16:03.025Z,95436.91
2023-01-13T10:18:44.490Z,95432.06
2023-01-13T10:21:27.213Z,95430.47
2023-01-13T10:24:03.733Z,95392.56
2023-01-13T10:26:48.329Z,95375.91
2023-01-13T10:29:25.493Z,95416.50
2023-01-13T10:31:54.600Z,95383.81
2023-01-13T10:34:25.519Z,95411.47
2023-01-13T10:37:06.616Z,95407.88
2023-01-13T10:39:42.637Z,95395.19
2023-01-13T10:42:15.955Z,95303.22
2023-01-13T10:44:52.361Z,95396.75
2023-01-13T10:47:28.820Z,95392.66
2023-01-13T10:50:26.231Z,95393.13
2023-01-13T10:53:00.805Z,95389.72
2023-01-13T10:55:32.172Z,95377.78
2023-01-13T10:58:13.848Z,95382.50
2023-01-13T11:00:42.486Z,95373.25
2023-01-13T11:03:17.568Z,95361.53
2023-01-13T11:05:55.411Z,95382.69
2023-01-13T11:08:26.260Z,95364.22
2023-01-13T11:10:57.667Z,95381.81
2023-01-13T11:13:33.589Z,95375.47
2023-01-13T11:16:06.927Z,95339.44
2023-01-13T11:18:52.138Z,95354.16
2023-01-13T11:21:25.993Z,95365.38
2023-01-13T11:24:06.789Z,95363.34
2023-01-13T11:26:45.059Z,95352.66
2023-01-13T11:29:19.269Z,95350.84
2023-01-13T11:31:52.729Z,95356.63
2023-01-13T11:34:29.924Z,95343.75
2023-01-13T11:37:02.012Z,95340.53
2023-01-13T11:39:42.630Z,95345.19
2023-01-13T11:42:24.685Z,95264.06
2023-01-13T11:45:03.163Z,95334.22
2023-01-13T11:47:33.130Z,95320.34
2023-01-13T11:50:02.184Z,95316.63
2023-01-13T11:52:49.222Z,95331.91
2023-01-13T11:55:32.486Z,95328.53
2023-01-13T11:58:29.061Z,95329.72
2023-01-13T12:01:10.997Z,95286.78
2023-01-13T12:03:44.261Z,95328.19
2023-01-13T12:06:28.579Z,95290.31
2023-01-13T12:09:26.414Z,95328.56
2023-01-13T12:12:27.653Z,95314.91
2023-01-13T12:15:29.452Z,95337.63
2023-01-13T12:18:20.207Z,95317.63
2023-01-13T12:21:01.605Z,95312.00
2023-01-13T12:23:35.812Z,95320.03
2023-01-13T12:26:11.739Z,95316.25
2023-01-13T12:28:46.561Z,95288.41
2023-01-13T12:31:17.111Z,95323.56
2023-01-13T12:33:56.656Z,95311.50
2023-01-13T12:36:32.530Z,95312.41
2023-01-13T12:39:10.567Z,95327.22
2023-01-13T12:41:59.218Z,95292.53
2023-01-13T12:44:27.610Z,95332.72
2023-01-13T12:46:57.258Z,95330.50
2023-01-13T12:49:28.319Z,95312.41
2023-01-13T12:52:19.956Z,95333.22
2023-01-13T12:55:19.428Z,95338.53
2023-01-13T12:58:01.233Z,95333.47
2023-01-13T13:00:38.336Z,95335.63
2023-01-13T13:03:37.562Z,95335.03
2023-01-13T13:06:11.797Z,95328.28
2023-01-13T13:08:54.629Z,95335.97
2023-01-13T13:11:53.226Z,95338.00
2023-01-13T13:15:04.510Z,95335.69
2023-01-13T13:18:01.745Z,95342.75
2023-01-13T13:20:56.424Z,95345.56
2023-01-13T13:23:44.375Z,95351.78
2023-01-13T13:26:25.100Z,95343.41
2023-01-13T13:29:28.572Z,95340.22
2023-01-13T13:32:15.997Z,95339.34
2023-01-13T13:34:53.866Z,95352.31
2023-01-13T13:38:05.319Z,95348.22
2023-01-13T13:41:02.362Z,95308.56
2023-01-13T13:43:56.428Z,95334.34
2023-01-13T13:46:44.530Z,95351.69
2023-01-13T13:49:13.403Z,95359.94
2023-01-13T13:51:49.470Z,95360.88
2023-01-13T13:54:21.248Z,95352.09
2023-01-13T13:56:51.552Z,95316.19
2023-01-13T13:59:22.796Z,95368.16
2023-01-13T14:02:01.298Z,95362.19
2023-01-13T14:04:31.855Z,95367.53
2023-01-13T14:07:04.616Z,95363.38
2023-01-13T14:09:42.893Z,95357.03
2023-01-13T14:12:19.260Z,95366.34
2023-01-13T14:14:49.249Z,95368.00
2023-01-13T14:17:23.599Z,95352.28
2023-01-13T14:19:58.241Z,95357.66
2023-01-13T14:22:27.990Z,95372.59
2023-01-13T14:24:57.884Z,95379.94
2023-01-13T14:27:28.521Z,95385.53
2023-01-13T14:29:59.443Z,95333.75
2023-01-13T14:32:33.730Z,95385.19
2023-01-13T14:35:02.145Z,95382.66
2023-01-13T14:37:36.344Z,95383.25
2023-01-13T14:40:05.127Z,95391.84
2023-01-13T14:42:35.602Z,95366.22
2023-01-13T14:45:04.514Z,95356.31
2023-01-13T14:47:34.970Z,95392.38
2023-01-13T14:50:07.719Z,95399.50
2023-01-13T14:52:47.774Z,95406.34
2023-01-13T14:55:26.387Z,95400.72
2023-01-13T14:57:55.058Z,95407.03
2023-01-13T15:00:26.324Z,95411.47
2023-01-13T15:03:08.628Z,95410.06
2023-01-13T15:05:42.680Z,95413.78
2023-01-13T15:08:38.356Z,95404.50
2023-01-13T15:11:08.945Z,95402.59
2023-01-13T15:13:50.441Z,95390.50
2023-01-13T15:16:25.124Z,95405.53
2023-01-13T15:18:54.465Z,95424.22
2023-01-13T15:21:23.483Z,95428.03
2023-01-13T15:23:53.299Z,95425.66
2023-01-13T15:26:24.456Z,95419.69
2023-01-13T15:28:53.720Z,95414.72
2023-01-13T15:31:22.639Z,95431.50
2023-01-13T15:33:52.706Z,95430.81
2023-01-13T15:36:27.157Z,95441.78
2023-01-13T15:38:57.677Z,95435.75
2023-01-13T15:41:43.970Z,95456.50
2023-01-13T15:44:30.902Z,95451.19
2023-01-13T15:47:02.679Z,95404.69
2023-01-13T15:49:36.940Z,95452.38
2023-01-13T15:52:07.850Z,95466.22
2023-01-13T15:54:37.528Z,95467.72
2023-01-13T15:57:05.918Z,95453.22
2023-01-13T15:59:34.334Z,95467.94
2023-01-13T16:02:02.653Z,95469.75
2023-01-13T16:04:30.992Z,95469.69
2023-01-13T16:06:59.376Z,95450.38
2023-01-13T16:09:27.644Z,95479.34
2023-01-13T16:11:57.447Z,95473.28
2023-01-13T16:14:25.801Z,95471.66
2023-01-13T16:16:54.172Z,95471.50
2023-01-13T16:19:22.544Z,95481.09
2023-01-13T16:21:51.039Z,95453.97
2023-01-13T16:24:19.388Z,95483.00
2023-01-13T16:26:47.797Z,95485.09
2023-01-13T16:29:17.476Z,95487.09
2023-01-13T16:31:45.778Z,95488.81
2023-01-13T16:34:14.073Z,95489.63
2023-01-13T16:36:43.901Z,95424.13
2023-01-13T16:39:22.265Z,95493.50
2023-01-13T16:41:50.661Z,95502.09
2023-01-13T16:44:20.601Z,95498.13
2023-01-13T16:46:48.838Z,95496.47
2023-01-13T16:49:18.586Z,95497.25
2023-01-13T16:51:46.943Z,95490.50
2023-01-13T16:54:16.625Z,95502.19
2023-01-13T16:56:45.365Z,95443.13
2023-01-13T16:59:17.152Z,95509.31
2023-01-13T17:01:46.905Z,95514.31
2023-01-13T17:04:17.810Z,95509.97
2023-01-13T17:06:53.311Z,95511.09
2023-01-13T17:09:24.204Z,95515.28
2023-01-13T17:11:52.959Z,95513.97
2023-01-13T17:14:23.631Z,95518.19
2023-01-13T17:16:55.212Z,95505.81
2023-01-13T17:19:24.672Z,95525.72
2023-01-13T17:21:53.132Z,95523.03
2023-01-13T17:24:21.596Z,95531.06
2023-01-13T17:26:51.819Z,95479.09
2023-01-13T17:29:22.339Z,95526.78
2023-01-13T17:31:54.718Z,95529.81
2023-01-13T17:34:23.199Z,95526.13
2023-01-13T17:36:51.513Z,95539.94
2023-01-13T17:39:22.324Z,95521.41
2023-01-13T17:41:51.342Z,95518.47
2023-01-13T17:44:21.947Z,95464.69
2023-01-13T17:46:50.562Z,95472.63
2023-01-13T17:49:22.039Z,95534.91
2023-01-13T17:51:51.592Z,95465.44
2023-01-13T17:54:20.353Z,95530.97
2023-01-13T17:56:48.887Z,95538.38
2023-01-13T17:59:19.395Z,95545.50
2023-01-13T18:01:47.870Z,95528.84
2023-01-13T18:04:17.681Z,95536.78
2023-01-13T18:06:48.048Z,95503.84
2023-01-13T18:09:16.566Z,95546.25
2023-01-13T18:11:47.070Z,95549.53
2023-01-13T18:14:15.910Z,95518.75
2023-01-13T18:16:44.872Z,95540.25
2023-01-13T18:19:30.615Z,95541.81
2023-01-13T18:22:17.533Z,95549.22
2023-01-13T18:25:03.041Z,95541.56
2023-01-13T18:27:33.859Z,95543.66
2023-01-13T18:30:03.675Z,95552.94
2023-01-13T18:32:33.727Z,95556.91
2023-01-13T18:35:06.755Z,95551.09
2023-01-13T18:37:38.899Z,95554.25
2023-01-13T18:40:09.456Z,95552.94
2023-01-13T18:42:51.970Z,95517.69
2023-01-13T18:45:20.618Z,95548.72
2023-01-13T18:47:48.884Z,95555.88
2023-01-13T18:50:18.230Z,95558.00
2023-01-13T18:52:48.073Z,95458.06
2023-01-13T18:55:16.740Z,95558.53
2023-01-13T18:57:45.291Z,95529.88
2023-01-13T19:00:16.276Z,95557.72
2023-01-13T19:02:45.225Z,95565.69
2023-01-13T19:05:13.901Z,95558.81
2023-01-13T19:07:43.507Z,95563.31
2023-01-13T19:10:14.472Z,95517.72
2023-01-13T19:12:43.857Z,95563.03
2023-01-13T19:15:12.832Z,95559.84
2023-01-13T19:17:41.290Z,95541.56
2023-01-13T19:20:11.546Z,95563.31
2023-01-13T19:22:39.897Z,95572.84
2023-01-13T19:25:08.682Z,95562.78
2023-01-13T19:27:39.841Z,95567.53
2023-01-13T19:30:09.755Z,95564.53
2023-01-13T19:32:38.116Z,95572.56
2023-01-13T19:35:07.417Z,95559.84
2023-01-13T19:37:37.138Z,95571.41
2023-01-13T19:40:09.445Z,95576.50
2023-01-13T19:42:56.478Z,95518.34
2023-01-13T19:45:27.475Z,95580.72
2023-01-13T19:47:56.277Z,95578.09
2023-01-13T19:50:25.043Z,95573.56
2023-01-13T19:52:53.339Z,95577.03
2023-01-13T19:55:22.376Z,95578.88
2023-01-13T19:57:52.120Z,95586.59
2023-01-13T20:00:22.051Z,95577.22
2023-01-13T20:02:52.094Z,95586.50
2023-01-13T20:05:22.846Z,95588.91
2023-01-13T20:07:51.783Z,95590.47
2023-01-13T20:10:21.930Z,95588.94
2023-01-13T20:12:51.979Z,95592.44
2023-01-13T20:15:20.227Z,95595.63
2023-01-13T20:17:48.912Z,95595.59
2023-01-13T20:20:18.764Z,95593.22
2023-01-13T20:22:47.155Z,95594.25
2023-01-13T20:25:17.570Z,95592.94
2023-01-13T20:27:46.470Z,95590.28
2023-01-13T20:30:16.823Z,95599.28
2023-01-13T20:32:45.376Z,95585.78
2023-01-13T20:35:14.032Z,95588.41
2023-01-13T20:37:43.821Z,95517.81
2023-01-13T20:40:16.373Z,95503.75
2023-01-13T20:42:45.324Z,95504.25
2023-01-13T20:45:20.918Z,95580.66
2023-01-13T20:47:49.349Z,95539.28
2023-01-13T20:50:17.981Z,95589.75
2023-01-13T20:52:46.682Z,95585.00
2023-01-13T20:55:15.318Z,95586.84
2023-01-13T20:57:43.787Z,95540.69
2023-01-13T21:00:16.887Z,95581.78
2023-01-13T21:02:45.189Z,95582.88
2023-01-13T21:05:13.707Z,95579.97
2023-01-13T21:07:41.996Z,95608.88
2023-01-13T21:10:11.887Z,95605.16
2023-01-13T21:12:57.474Z,95579.72
2023-01-13T21:15:27.907Z,95586.34
2023-01-13T21:18:13.745Z,95578.09
2023-01-13T21:20:42.251Z,95552.09
2023-01-13T21:23:12.048Z,95577.59
2023-01-13T21:25:40.665Z,95580.22
2023-01-13T21:28:11.715Z,95524.78
2023-01-13T21:30:42.167Z,95584.72
2023-01-13T21:33:14.892Z,95581.78
2023-01-13T21:35:43.357Z,95577.22
2023-01-13T21:38:12.748Z,95578.50
2023-01-13T21:40:41.211Z,95489.13
2023-01-13T21:43:30.992Z,94843.44
2023-01-13T21:46:18.235Z,95520.81
2023-01-13T21:48:46.765Z,95362.75
2023-01-13T21:51:15.297Z,95141.78
2023-01-13T21:53:43.673Z,95574.41
2023-01-13T21:56:12.178Z,95546.25
2023-01-13T21:58:40.480Z,95568.03
2023-01-13T22:01:11.977Z,95567.75
2023-01-13T22:03:54.730Z,95565.63
2023-01-13T22:06:23.361Z,95544.84
2023-01-13T22:08:51.741Z,95513.94
2023-01-13T22:11:20.035Z,95570.72
2023-01-13T22:14:05.575Z,95570.88
2023-01-13T22:16:37.983Z,95567.25
2023-01-13T22:19:07.805Z,95526.78
2023-01-13T22:21:36.784Z,95582.47
2023-01-13T22:24:05.323Z,95576.44
2023-01-13T22:26:33.609Z,95583.59
2023-01-13T22:29:02.381Z,95586.88
2023-01-13T22:31:31.997Z,95589.00
2023-01-13T22:34:01.734Z,95574.59
2023-01-13T22:36:29.985Z,95588.41
2023-01-13T22:39:00.570Z,95560.28
2023-01-13T22:41:29.070Z,95546.22
2023-01-13T22:43:57.559Z,95580.25
2023-01-13T22:46:25.939Z,95578.00
2023-01-13T22:48:56.003Z,95579.97
2023-01-13T22:51:26.762Z,95578.00
2023-01-13T22:53:55.637Z,95580.13
2023-01-13T22:59:13.337Z,95588.22
2023-01-13T23:01:42.272Z,95579.19
2023-01-13T23:04:13.027Z,95561.47
2023-01-13T23:06:42.851Z,95574.56
2023-01-13T23:09:11.538Z,95577.81
2023-01-13T23:11:40.789Z,95577.34
2023-01-13T23:14:10.460Z,95561.47
2023-01-13T23:16:40.822Z,95583.19
2023-01-13T23:19:09.642Z,95541.06
2023-01-13T23:21:39.088Z,95577.00
2023-01-13T23:24:09.281Z,95568.97
2023-01-13T23:26:38.030Z,95534.44
2023-01-13T23:29:09.194Z,95564.59
2023-01-13T23:31:37.624Z,95504.97
2023-01-13T23:34:05.912Z,95562.34
2023-01-13T23:36:37.146Z,95540.00
2023-01-13T23:39:05.589Z,95560.13
2023-01-13T23:41:35.308Z,95469.63
2023-01-13T23:44:03.593Z,95502.03
2023-01-13T23:46:34.120Z,95548.16
2023-01-13T23:49:03.654Z,95556.91
2023-01-13T23:51:32.273Z,95547.06
2023-01-13T23:54:01.107Z,95558.22
2023-01-13T23:56:31.565Z,95562.16
2023-01-13T23:59:01.391Z,95511.22
